Time;durP1;ratioP1;P1;durP2;ratioP2;P2;SDS_P1;SDS_P2;PMS_P1;PMS_P2;Temp;Humidity;BMP_temperature;BMP_pressure;BME280_temperature;BME280_humidity;BME280_pressure;Samples;Min_cycle;Max_cycle;Signal;HPM_P1;HPM_P2
2021/12/06 00:01:29;;;;;;;49.23;21.97;;;;;;;;;;4932261;29;20051;-72
2021/12/06 00:04:10;;;;;;;58.03;21.50;;;;;;;;;;4932416;29;20344;-72
2021/12/06 00:06:38;;;;;;;53.37;22.23;;;;;;;;;;4934135;29;20114;-71
2021/12/06 00:09:07;;;;;;;64.70;23.60;;;;;;;;;;4933599;29;20023;-72
2021/12/06 00:11:34;;;;;;;56.63;22.70;;;;;;;;;;4932349;29;20107;-72
2021/12/06 00:14:02;;;;;;;47.93;21.00;;;;;;;;;;4931950;29;20030;-71
2021/12/06 00:16:28;;;;;;;61.77;22.23;;;;;;;;;;4933647;29;20404;-71
2021/12/06 00:18:53;;;;;;;65.60;22.27;;;;;;;;;;4933566;29;20328;-71
2021/12/06 00:21:21;;;;;;;49.83;20.27;;;;;;;;;;4932053;29;20502;-73
2021/12/06 00:23:47;;;;;;;50.83;21.27;;;;;;;;;;4933418;29;20028;-72
2021/12/06 00:26:13;;;;;;;52.47;21.57;;;;;;;;;;4931839;29;20042;-71
2021/12/06 00:28:42;;;;;;;49.30;21.43;;;;;;;;;;4931976;29;20031;-71
2021/12/06 00:31:08;;;;;;;51.53;21.67;;;;;;;;;;4931833;29;20027;-71
2021/12/06 00:33:34;;;;;;;70.60;23.53;;;;;;;;;;4931823;29;20066;-71
2021/12/06 00:36:04;;;;;;;60.97;23.50;;;;;;;;;;4932801;29;20075;-73
2021/12/06 00:38:31;;;;;;;54.33;20.70;;;;;;;;;;4933448;29;20038;-70
2021/12/06 00:40:57;;;;;;;58.97;21.37;;;;;;;;;;4931654;29;20032;-72
2021/12/06 00:43:23;;;;;;;47.93;22.30;;;;;;;;;;4933270;29;20098;-72
2021/12/06 00:45:48;;;;;;;56.57;21.27;;;;;;;;;;4915875;29;20139;-72
2021/12/06 00:48:14;;;;;;;48.33;21.00;;;;;;;;;;4932771;29;20073;-71
2021/12/06 00:50:43;;;;;;;52.40;20.87;;;;;;;;;;4931940;29;20031;-72
2021/12/06 00:53:09;;;;;;;65.73;21.37;;;;;;;;;;4931433;29;20075;-73
2021/12/06 00:55:36;;;;;;;50.80;20.10;;;;;;;;;;4932686;29;20024;-72
2021/12/06 00:58:02;;;;;;;44.13;21.37;;;;;;;;;;4935069;29;20037;-73
2021/12/06 01:00:35;;;;;;;59.97;21.17;;;;;;;;;;4933132;29;20035;-74
2021/12/06 01:03:05;;;;;;;63.77;23.33;;;;;;;;;;4932664;29;20027;-72
2021/12/06 01:05:31;;;;;;;57.47;22.20;;;;;;;;;;4932637;29;20586;-72
2021/12/06 01:07:56;;;;;;;56.97;20.47;;;;;;;;;;4932332;29;20098;-70
2021/12/06 01:10:27;;;;;;;53.87;20.97;;;;;;;;;;4932622;29;20036;-70
2021/12/06 01:12:53;;;;;;;55.23;21.53;;;;;;;;;;4932577;29;20019;-71
2021/12/06 01:15:18;;;;;;;56.17;23.17;;;;;;;;;;4930375;29;20031;-72
2021/12/06 01:17:45;;;;;;;54.13;21.03;;;;;;;;;;4931139;29;20028;-72
2021/12/06 01:20:17;;;;;;;59.10;23.70;;;;;;;;;;4930901;29;20027;-72
2021/12/06 01:22:50;;;;;;;56.80;22.45;;;;;;;;;;4931129;29;20028;-73
2021/12/06 01:25:57;;;;;;;;;;;;;;;;;;4931746;29;20035;-72
2021/12/06 01:31:01;;;;;;;52.90;21.13;;;;;;;;;;4932454;29;20039;-72
2021/12/06 01:33:38;;;;;;;43.13;20.73;;;;;;;;;;4932421;29;20412;-71
2021/12/06 01:41:35;;;;;;;58.47;21.10;;;;;;;;;;4932173;29;20063;-72
2021/12/06 01:44:25;;;;;;;52.63;20.07;;;;;;;;;;4931585;29;20039;-71
2021/12/06 01:46:58;;;;;;;49.87;19.63;;;;;;;;;;4931963;29;20031;-72
2021/12/06 01:49:36;;;;;;;50.73;19.70;;;;;;;;;;4931864;29;20043;-70
2021/12/06 01:52:06;;;;;;;53.83;21.47;;;;;;;;;;4930242;29;20044;-72
2021/12/06 01:54:32;;;;;;;54.17;21.77;;;;;;;;;;4931846;29;20036;-71
2021/12/06 01:56:58;;;;;;;54.43;20.57;;;;;;;;;;4931923;29;20118;-71
2021/12/06 01:59:25;;;;;;;52.03;20.37;;;;;;;;;;4931852;29;20116;-72
2021/12/06 02:01:50;;;;;;;51.67;20.63;;;;;;;;;;4931921;29;20031;-72
2021/12/06 02:04:17;;;;;;;49.43;19.63;;;;;;;;;;4930139;29;20092;-71
2021/12/06 02:06:44;;;;;;;59.37;22.00;;;;;;;;;;4930351;29;20551;-71
2021/12/06 02:09:12;;;;;;;48.40;20.67;;;;;;;;;;4930207;29;20027;-72
2021/12/06 02:11:39;;;;;;;58.70;21.13;;;;;;;;;;4931863;29;20023;-71
2021/12/06 02:16:57;;;;;;;54.13;21.43;;;;;;;;;;4931919;29;20067;-71
2021/12/06 02:19:20;;;;;;;57.80;21.50;;;;;;;;;;4931392;29;20045;-72
2021/12/06 02:21:46;;;;;;;55.53;20.70;;;;;;;;;;4930302;29;20524;-71
2021/12/06 02:24:11;;;;;;;49.57;22.10;;;;;;;;;;4930158;29;20444;-71
2021/12/06 02:26:41;;;;;;;47.90;18.30;;;;;;;;;;4933875;29;20041;-72
2021/12/06 02:29:08;;;;;;;64.37;20.10;;;;;;;;;;4933834;29;20070;-72
2021/12/06 02:31:34;;;;;;;49.87;20.17;;;;;;;;;;4935590;29;20031;-72
2021/12/06 02:34:00;;;;;;;47.37;19.57;;;;;;;;;;4933978;29;20079;-71
2021/12/06 02:36:27;;;;;;;50.57;20.07;;;;;;;;;;4933777;29;20401;-71
2021/12/06 02:38:53;;;;;;;53.37;20.20;;;;;;;;;;4933957;29;20051;-72
2021/12/06 02:41:19;;;;;;;56.83;20.00;;;;;;;;;;4933715;29;20210;-72
2021/12/06 02:43:47;;;;;;;47.87;20.03;;;;;;;;;;4933754;29;20088;-71
2021/12/06 02:46:12;;;;;;;46.17;19.13;;;;;;;;;;4935152;29;20039;-71
2021/12/06 02:48:38;;;;;;;47.20;19.57;;;;;;;;;;4933744;29;20032;-73
2021/12/06 02:51:05;;;;;;;47.57;19.47;;;;;;;;;;4935021;29;20040;-71
2021/12/06 02:53:33;;;;;;;47.67;19.33;;;;;;;;;;4935108;29;20062;-71
2021/12/06 02:56:04;;;;;;;51.33;20.37;;;;;;;;;;4935536;29;20047;-71
2021/12/06 03:01:17;;;;;;;50.90;19.43;;;;;;;;;;4935406;29;20045;-71
2021/12/06 03:03:42;;;;;;;51.83;19.58;;;;;;;;;;4933678;29;20477;-72
2021/12/06 03:06:09;;;;;;;49.57;18.97;;;;;;;;;;4933513;29;20039;-71
2021/12/06 03:08:47;;;;;;;52.90;19.93;;;;;;;;;;4934968;29;20027;-72
2021/12/06 03:11:18;;;;;;;54.50;20.40;;;;;;;;;;4934857;29;20027;-72
2021/12/06 03:13:45;;;;;;;49.67;19.17;;;;;;;;;;4934835;29;20042;-70
2021/12/06 03:16:10;;;;;;;41.20;17.77;;;;;;;;;;4933265;29;20043;-71
2021/12/06 03:18:36;;;;;;;54.40;19.33;;;;;;;;;;4933474;29;20043;-72
2021/12/06 03:21:03;;;;;;;46.13;18.47;;;;;;;;;;4934859;29;20568;-70
2021/12/06 03:23:29;;;;;;;43.63;17.90;;;;;;;;;;4934417;29;20036;-72
2021/12/06 03:25:55;;;;;;;53.40;17.80;;;;;;;;;;4933084;29;20503;-70
2021/12/06 03:28:20;;;;;;;44.70;18.23;;;;;;;;;;4932886;29;20043;-72
2021/12/06 03:30:46;;;;;;;44.47;16.93;;;;;;;;;;4933128;29;20127;-71
2021/12/06 03:33:12;;;;;;;48.60;17.40;;;;;;;;;;4934273;29;20091;-71
2021/12/06 03:35:38;;;;;;;45.10;17.83;;;;;;;;;;4932647;29;20055;-71
2021/12/06 03:38:04;;;;;;;41.83;17.13;;;;;;;;;;4931545;29;20476;-73
2021/12/06 03:40:31;;;;;;;41.57;18.00;;;;;;;;;;4933103;29;20098;-71
2021/12/06 03:42:56;;;;;;;43.63;18.43;;;;;;;;;;4934117;29;20405;-71
2021/12/06 03:45:22;;;;;;;45.63;17.47;;;;;;;;;;4932863;29;20102;-72
2021/12/06 03:47:48;;;;;;;41.33;17.47;;;;;;;;;;4932929;29;20509;-71
2021/12/06 03:50:14;;;;;;;50.57;18.33;;;;;;;;;;4932490;29;20501;-72
2021/12/06 03:52:40;;;;;;;48.80;17.57;;;;;;;;;;4932645;29;20170;-71
2021/12/06 03:55:07;;;;;;;46.17;17.50;;;;;;;;;;4933658;29;20110;-73
2021/12/06 03:57:32;;;;;;;49.23;16.30;;;;;;;;;;4933961;29;20032;-71
2021/12/06 03:59:58;;;;;;;43.97;17.77;;;;;;;;;;4933873;29;20050;-72
2021/12/06 04:02:28;;;;;;;47.07;17.20;;;;;;;;;;4933732;29;20543;-72
2021/12/06 04:04:55;;;;;;;44.73;16.80;;;;;;;;;;4932809;29;20468;-70
2021/12/06 04:07:21;;;;;;;40.90;17.20;;;;;;;;;;4933545;29;20039;-71
2021/12/06 04:09:47;;;;;;;38.87;16.20;;;;;;;;;;4933592;29;20107;-71
2021/12/06 04:12:14;;;;;;;37.50;16.13;;;;;;;;;;4933646;29;20114;-70
2021/12/06 04:14:41;;;;;;;39.33;17.13;;;;;;;;;;4932037;29;20079;-73
2021/12/06 04:17:07;;;;;;;35.40;15.57;;;;;;;;;;4933361;29;20073;-71
2021/12/06 04:19:33;;;;;;;38.90;17.00;;;;;;;;;;4933349;29;20039;-70
2021/12/06 04:21:59;;;;;;;42.50;15.87;;;;;;;;;;4932103;29;20039;-72
2021/12/06 04:24:25;;;;;;;45.53;17.87;;;;;;;;;;4931815;29;20469;-70
2021/12/06 04:26:51;;;;;;;42.50;17.57;;;;;;;;;;4933377;29;20035;-73
2021/12/06 04:29:16;;;;;;;46.73;17.10;;;;;;;;;;4931869;29;20035;-71
2021/12/06 04:31:49;;;;;;;34.13;16.57;;;;;;;;;;4933093;29;20031;-72
2021/12/06 04:34:15;;;;;;;38.37;16.83;;;;;;;;;;4933221;29;20426;-71
2021/12/06 04:36:43;;;;;;;45.17;18.17;;;;;;;;;;4932965;29;20066;-72
2021/12/06 04:39:12;;;;;;;46.67;18.27;;;;;;;;;;4931680;29;20028;-72
2021/12/06 04:41:38;;;;;;;51.13;16.90;;;;;;;;;;4931809;29;20598;-71
2021/12/06 04:44:04;;;;;;;38.07;15.53;;;;;;;;;;4931683;29;20061;-72
2021/12/06 04:46:30;;;;;;;42.63;17.00;;;;;;;;;;4931160;29;20056;-71
2021/12/06 04:48:56;;;;;;;47.03;16.47;;;;;;;;;;4932600;29;20492;-71
2021/12/06 04:51:22;;;;;;;40.17;16.40;;;;;;;;;;4931416;29;20036;-70
2021/12/06 04:53:48;;;;;;;38.83;15.90;;;;;;;;;;4931369;29;20031;-70
2021/12/06 04:56:22;;;;;;;34.50;13.77;;;;;;;;;;4931221;29;20031;-72
2021/12/06 04:59:09;;;;;;;33.77;14.60;;;;;;;;;;4932886;29;20031;-71
2021/12/06 05:01:36;;;;;;;36.97;13.17;;;;;;;;;;4932671;29;20020;-72
2021/12/06 05:04:08;;;;;;;30.97;13.60;;;;;;;;;;4931097;29;20030;-70
2021/12/06 05:06:36;;;;;;;39.78;16.85;;;;;;;;;;4932535;29;20053;-72
2021/12/06 05:09:15;;;;;;;30.33;13.13;;;;;;;;;;4931179;29;20028;-72
2021/12/06 05:11:42;;;;;;;34.47;13.90;;;;;;;;;;4932604;29;20360;-71
2021/12/06 05:14:08;;;;;;;37.03;18.40;;;;;;;;;;4930894;29;20137;-72
2021/12/06 05:16:35;;;;;;;29.00;12.73;;;;;;;;;;4930927;29;20769;-70
2021/12/06 05:19:01;;;;;;;36.23;14.50;;;;;;;;;;4930959;29;20376;-72
2021/12/06 05:21:27;;;;;;;36.10;13.20;;;;;;;;;;4932106;29;20050;-70
2021/12/06 05:23:53;;;;;;;35.73;15.03;;;;;;;;;;4931988;29;20027;-72
2021/12/06 05:26:18;;;;;;;34.93;13.93;;;;;;;;;;4930433;29;20100;-71
2021/12/06 05:28:46;;;;;;;35.60;14.27;;;;;;;;;;4931086;29;20059;-72
2021/12/06 05:31:19;;;;;;;33.87;13.27;;;;;;;;;;4932068;29;20540;-71
2021/12/06 05:33:49;;;;;;;39.00;13.60;;;;;;;;;;4930908;29;20028;-71
2021/12/06 05:36:15;;;;;;;37.10;14.73;;;;;;;;;;4930838;29;20134;-72
2021/12/06 05:38:41;;;;;;;39.50;14.60;;;;;;;;;;4932649;29;20167;-72
2021/12/06 05:41:06;;;;;;;37.47;14.77;;;;;;;;;;4932314;29;20059;-70
2021/12/06 05:43:33;;;;;;;33.03;14.17;;;;;;;;;;4932145;29;20027;-72
2021/12/06 05:45:59;;;;;;;36.67;15.23;;;;;;;;;;4930716;29;20468;-71
2021/12/06 05:48:25;;;;;;;35.47;15.13;;;;;;;;;;4930553;29;20027;-72
2021/12/06 05:50:51;;;;;;;46.30;15.47;;;;;;;;;;4930579;29;20374;-72
2021/12/06 05:53:17;;;;;;;40.00;16.73;;;;;;;;;;4931728;29;20039;-70
2021/12/06 05:55:43;;;;;;;35.43;14.43;;;;;;;;;;4931954;29;20083;-72
2021/12/06 05:58:11;;;;;;;37.93;14.77;;;;;;;;;;4931902;29;20035;-71
2021/12/06 06:00:38;;;;;;;38.80;16.40;;;;;;;;;;4930916;29;20030;-72
2021/12/06 06:03:06;;;;;;;35.70;15.23;;;;;;;;;;4930799;29;20114;-70
2021/12/06 06:05:33;;;;;;;46.07;16.23;;;;;;;;;;4930386;29;20031;-71
2021/12/06 06:08:00;;;;;;;36.13;15.03;;;;;;;;;;4915215;29;20035;-73
2021/12/06 06:10:26;;;;;;;48.03;15.20;;;;;;;;;;4930994;29;20068;-72
2021/12/06 06:12:52;;;;;;;36.80;15.30;;;;;;;;;;4930742;29;20114;-73
2021/12/06 06:15:17;;;;;;;38.50;15.27;;;;;;;;;;4930099;29;20429;-72
2021/12/06 06:17:44;;;;;;;36.87;14.10;;;;;;;;;;4931660;29;20051;-71
2021/12/06 06:20:21;;;;;;;50.40;14.53;;;;;;;;;;4930338;29;20548;-71
2021/12/06 06:22:46;;;;;;;38.57;13.87;;;;;;;;;;4930242;29;20028;-73
2021/12/06 06:25:12;;;;;;;36.53;16.73;;;;;;;;;;4929993;29;20023;-72
2021/12/06 06:27:38;;;;;;;37.87;15.70;;;;;;;;;;4929802;29;20397;-73
2021/12/06 06:30:05;;;;;;;31.33;14.37;;;;;;;;;;4931495;29;20106;-72
2021/12/06 06:32:30;;;;;;;48.07;16.03;;;;;;;;;;4930072;29;20055;-70
2021/12/06 06:34:56;;;;;;;31.57;11.83;;;;;;;;;;4930102;29;20468;-72
2021/12/06 06:37:23;;;;;;;38.07;14.30;;;;;;;;;;4931551;29;20099;-72
2021/12/06 06:39:49;;;;;;;42.10;15.63;;;;;;;;;;4930331;29;20027;-72
2021/12/06 06:42:16;;;;;;;35.97;13.80;;;;;;;;;;4931381;29;20039;-74
2021/12/06 06:44:41;;;;;;;40.17;11.47;;;;;;;;;;4930246;29;20333;-71
2021/12/06 06:47:07;;;;;;;27.67;12.10;;;;;;;;;;4931544;29;20027;-73
2021/12/06 06:49:33;;;;;;;37.50;14.00;;;;;;;;;;4931430;29;20028;-72
2021/12/06 06:52:01;;;;;;;27.63;11.67;;;;;;;;;;4930615;29;20043;-72
2021/12/06 06:54:27;;;;;;;33.63;12.40;;;;;;;;;;4929558;29;20031;-72
2021/12/06 06:56:53;;;;;;;26.03;11.70;;;;;;;;;;4931445;29;20047;-70
2021/12/06 06:59:19;;;;;;;25.43;12.03;;;;;;;;;;4931769;29;20078;-72
2021/12/06 07:01:45;;;;;;;26.03;10.70;;;;;;;;;;4931419;29;20426;-72
2021/12/06 07:04:12;;;;;;;37.43;12.43;;;;;;;;;;4931510;29;20027;-71
2021/12/06 07:06:38;;;;;;;27.83;10.53;;;;;;;;;;4931037;29;20051;-72
2021/12/06 07:09:05;;;;;;;26.53;11.23;;;;;;;;;;4930788;29;20109;-73
2021/12/06 07:11:31;;;;;;;30.77;12.63;;;;;;;;;;4929673;29;20479;-71
2021/12/06 07:13:57;;;;;;;24.17;10.80;;;;;;;;;;4933274;29;20030;-71
2021/12/06 07:16:25;;;;;;;28.60;11.23;;;;;;;;;;4918366;29;20035;-70
2021/12/06 07:18:50;;;;;;;28.10;11.20;;;;;;;;;;4915075;29;20032;-73
2021/12/06 07:21:16;;;;;;;25.50;11.73;;;;;;;;;;4918387;29;20368;-72
2021/12/06 07:23:42;;;;;;;28.57;11.00;;;;;;;;;;4929295;29;20054;-73
2021/12/06 07:26:10;;;;;;;26.80;10.43;;;;;;;;;;4912532;29;20144;-72
2021/12/06 07:28:47;;;;;;;31.90;13.03;;;;;;;;;;4926203;29;20028;-73
2021/12/06 07:31:14;;;;;;;25.00;10.87;;;;;;;;;;4931557;29;20151;-72
2021/12/06 07:33:42;;;;;;;30.43;11.50;;;;;;;;;;4933081;29;20032;-72
2021/12/06 07:36:08;;;;;;;27.07;11.97;;;;;;;;;;4930933;29;20071;-72
2021/12/06 07:38:37;;;;;;;29.17;13.40;;;;;;;;;;4939358;29;20031;-72
2021/12/06 07:41:07;;;;;;;32.27;13.37;;;;;;;;;;4930875;28;20090;-72
2021/12/06 07:43:34;;;;;;;25.37;11.93;;;;;;;;;;4923235;29;20024;-72
2021/12/06 07:46:01;;;;;;;23.93;11.40;;;;;;;;;;4921842;29;20040;-71
2021/12/06 07:48:27;;;;;;;26.53;11.80;;;;;;;;;;4930709;29;20031;-72
2021/12/06 07:50:52;;;;;;;28.83;12.00;;;;;;;;;;4927794;29;20023;-72
2021/12/06 07:53:18;;;;;;;28.63;11.70;;;;;;;;;;4930362;28;20036;-71
2021/12/06 07:55:44;;;;;;;26.23;12.63;;;;;;;;;;4925068;29;20512;-72
2021/12/06 07:58:10;;;;;;;31.87;12.20;;;;;;;;;;4931125;29;20023;-71
2021/12/06 08:00:40;;;;;;;27.37;11.37;;;;;;;;;;4926206;29;20031;-73
2021/12/06 08:03:08;;;;;;;31.67;12.07;;;;;;;;;;4941999;29;20024;-72
2021/12/06 08:05:37;;;;;;;29.27;11.47;;;;;;;;;;4931722;29;20059;-71
2021/12/06 08:08:12;;;;;;;22.57;11.00;;;;;;;;;;4940571;29;20059;-73
2021/12/06 08:10:45;;;;;;;24.83;11.60;;;;;;;;;;4931761;29;20097;-72
2021/12/06 08:13:17;;;;;;;28.73;12.57;;;;;;;;;;4929163;29;20099;-72
2021/12/06 08:15:43;;;;;;;27.10;11.82;;;;;;;;;;4926293;29;20045;-72
2021/12/06 08:18:11;;;;;;;26.60;10.37;;;;;;;;;;4931459;29;20543;-72
2021/12/06 08:20:38;;;;;;;23.07;10.10;;;;;;;;;;4929042;29;20031;-71
2021/12/06 08:23:05;;;;;;;23.73;10.83;;;;;;;;;;4928630;29;20632;-71
2021/12/06 08:25:31;;;;;;;35.03;12.37;;;;;;;;;;4930151;29;20083;-70
2021/12/06 08:27:57;;;;;;;29.50;11.33;;;;;;;;;;4930575;29;20480;-71
2021/12/06 08:30:25;;;;;;;20.73;10.50;;;;;;;;;;4925227;29;20074;-73
2021/12/06 08:32:53;;;;;;;29.97;12.53;;;;;;;;;;4935805;29;20035;-73
2021/12/06 08:35:19;;;;;;;34.83;12.57;;;;;;;;;;4929599;28;20043;-74
2021/12/06 08:37:46;;;;;;;23.97;11.23;;;;;;;;;;4934504;29;20527;-74
2021/12/06 08:40:13;;;;;;;29.77;11.37;;;;;;;;;;4935456;29;20039;-73
2021/12/06 08:42:39;;;;;;;26.43;11.57;;;;;;;;;;4924323;29;20122;-73
2021/12/06 08:45:05;;;;;;;25.47;12.23;;;;;;;;;;4924943;29;20122;-73
2021/12/06 08:47:31;;;;;;;24.10;12.87;;;;;;;;;;4923622;29;20090;-74
2021/12/06 08:49:57;;;;;;;28.20;12.40;;;;;;;;;;4932478;29;20532;-71
2021/12/06 08:52:23;;;;;;;21.00;9.67;;;;;;;;;;4919844;29;20039;-73
2021/12/06 08:54:49;;;;;;;22.03;10.43;;;;;;;;;;4927717;29;20028;-72
2021/12/06 08:57:17;;;;;;;27.07;11.47;;;;;;;;;;4919826;29;20034;-71
2021/12/06 08:59:43;;;;;;;33.20;12.07;;;;;;;;;;4932381;28;20032;-74
2021/12/06 09:02:10;;;;;;;32.13;11.50;;;;;;;;;;4923641;29;20168;-70
2021/12/06 09:04:39;;;;;;;24.80;10.27;;;;;;;;;;4927985;29;20448;-73
2021/12/06 09:07:12;;;;;;;25.27;10.13;;;;;;;;;;4926480;29;20027;-72
2021/12/06 09:09:46;;;;;;;18.97;10.13;;;;;;;;;;4927605;29;20360;-72
2021/12/06 09:12:20;;;;;;;31.93;11.20;;;;;;;;;;4909338;29;20071;-73
2021/12/06 09:14:45;;;;;;;21.50;10.00;;;;;;;;;;4934420;29;20473;-72
2021/12/06 09:17:13;;;;;;;28.80;10.33;;;;;;;;;;4928689;29;20042;-71
2021/12/06 09:19:39;;;;;;;24.43;10.70;;;;;;;;;;4911992;29;20082;-73
2021/12/06 09:22:08;;;;;;;22.97;10.23;;;;;;;;;;4929310;29;20043;-74
2021/12/06 09:24:35;;;;;;;24.13;11.40;;;;;;;;;;4926771;29;20123;-73
2021/12/06 09:27:01;;;;;;;24.60;10.87;;;;;;;;;;4919431;29;20556;-72
2021/12/06 09:29:28;;;;;;;28.30;11.40;;;;;;;;;;4922117;29;20035;-72
2021/12/06 09:31:54;;;;;;;20.87;9.33;;;;;;;;;;4929803;29;20031;-73
2021/12/06 09:34:20;;;;;;;29.33;10.97;;;;;;;;;;4929395;29;20032;-72
2021/12/06 09:36:46;;;;;;;30.30;11.00;;;;;;;;;;4931356;29;20044;-71
2021/12/06 09:39:14;;;;;;;23.07;10.93;;;;;;;;;;4932047;29;20095;-71
2021/12/06 09:41:40;;;;;;;24.50;11.90;;;;;;;;;;4926085;29;20461;-74
2021/12/06 09:44:09;;;;;;;21.27;9.60;;;;;;;;;;4912849;29;20130;-71
2021/12/06 09:46:38;;;;;;;24.27;10.77;;;;;;;;;;4920586;29;20504;-73
2021/12/06 09:49:11;;;;;;;26.60;11.60;;;;;;;;;;4926254;29;20490;-74
2021/12/06 09:51:38;;;;;;;25.57;11.87;;;;;;;;;;4926669;29;20094;-73
2021/12/06 09:54:05;;;;;;;30.67;11.50;;;;;;;;;;4925134;29;20031;-72
2021/12/06 09:56:37;;;;;;;25.40;11.27;;;;;;;;;;4925787;29;20122;-70
2021/12/06 09:59:06;;;;;;;29.77;13.07;;;;;;;;;;4928083;29;20039;-71
2021/12/06 10:01:37;;;;;;;24.03;11.80;;;;;;;;;;4929237;29;20035;-70
2021/12/06 10:04:06;;;;;;;22.73;11.17;;;;;;;;;;4941187;28;20050;-72
2021/12/06 10:06:32;;;;;;;27.47;11.77;;;;;;;;;;4924283;29;20066;-71
2021/12/06 10:09:01;;;;;;;24.87;11.53;;;;;;;;;;4925933;29;20171;-71
2021/12/06 10:11:27;;;;;;;26.03;11.10;;;;;;;;;;4926469;29;20032;-73
2021/12/06 10:13:55;;;;;;;25.73;12.07;;;;;;;;;;4928515;29;20407;-72
2021/12/06 10:16:21;;;;;;;28.97;13.37;;;;;;;;;;4925710;29;20067;-73
2021/12/06 10:18:48;;;;;;;30.03;12.60;;;;;;;;;;4927291;29;20039;-73
2021/12/06 10:21:16;;;;;;;26.63;12.53;;;;;;;;;;4925414;29;20034;-73
2021/12/06 10:23:43;;;;;;;26.83;12.43;;;;;;;;;;4924733;29;20118;-72
2021/12/06 10:26:12;;;;;;;31.23;13.17;;;;;;;;;;4925456;29;20393;-71
2021/12/06 10:28:43;;;;;;;28.13;12.17;;;;;;;;;;4937846;28;20035;-71
2021/12/06 10:31:11;;;;;;;30.33;13.37;;;;;;;;;;4938095;28;20560;-72
2021/12/06 10:33:40;;;;;;;32.90;12.47;;;;;;;;;;4928571;29;20040;-72
2021/12/06 10:36:09;;;;;;;26.87;12.23;;;;;;;;;;4922385;29;20056;-73
2021/12/06 10:38:53;;;;;;;33.63;13.67;;;;;;;;;;4924353;29;20067;-72
2021/12/06 10:41:25;;;;;;;27.80;13.17;;;;;;;;;;4925213;29;20051;-71
2021/12/06 10:43:56;;;;;;;27.73;13.00;;;;;;;;;;4925667;29;20050;-73
2021/12/06 10:46:22;;;;;;;27.90;11.33;;;;;;;;;;4929240;29;20051;-72
2021/12/06 10:48:48;;;;;;;26.30;11.20;;;;;;;;;;4927802;29;20138;-75
2021/12/06 10:51:17;;;;;;;28.63;12.60;;;;;;;;;;4928197;29;20082;-74
2021/12/06 10:54:04;;;;;;;24.20;11.60;;;;;;;;;;4918698;29;20036;-71
2021/12/06 10:56:41;;;;;;;29.50;12.90;;;;;;;;;;4931232;29;20528;-72
2021/12/06 10:59:13;;;;;;;23.80;11.57;;;;;;;;;;4929457;29;20036;-71
2021/12/06 11:01:39;;;;;;;28.10;12.27;;;;;;;;;;4930963;29;20047;-71
2021/12/06 11:04:08;;;;;;;32.07;12.67;;;;;;;;;;4930843;29;20032;-71
2021/12/06 11:06:43;;;;;;;29.37;12.43;;;;;;;;;;4929826;29;20031;-72
2021/12/06 11:09:10;;;;;;;27.40;11.10;;;;;;;;;;4934462;29;20039;-70
2021/12/06 11:11:46;;;;;;;32.60;14.03;;;;;;;;;;4945314;29;20050;-73
2021/12/06 11:14:22;;;;;;;27.33;12.93;;;;;;;;;;4945329;29;20094;-72
2021/12/06 11:16:53;;;;;;;25.97;11.40;;;;;;;;;;4934605;28;20415;-72
2021/12/06 11:19:20;;;;;;;25.40;11.30;;;;;;;;;;4950978;28;20050;-71
2021/12/06 11:21:58;;;;;;;35.37;12.70;;;;;;;;;;4928085;29;20492;-73
2021/12/06 11:24:29;;;;;;;25.00;11.60;;;;;;;;;;4925486;29;20085;-70
2021/12/06 11:27:06;;;;;;;27.23;11.80;;;;;;;;;;4926437;29;20126;-71
2021/12/06 11:29:45;;;;;;;29.27;12.03;;;;;;;;;;4929409;28;20487;-70
2021/12/06 11:32:21;;;;;;;31.53;12.30;;;;;;;;;;4942047;28;20031;-72
2021/12/06 11:34:53;;;;;;;28.13;12.27;;;;;;;;;;4936800;29;20047;-73
2021/12/06 11:37:25;;;;;;;26.45;11.45;;;;;;;;;;4930158;29;20317;-73
2021/12/06 11:40:12;;;;;;;24.88;12.10;;;;;;;;;;4928149;29;20042;-73
2021/12/06 11:43:00;;;;;;;26.20;10.57;;;;;;;;;;4936111;28;20264;-73
2021/12/06 11:45:48;;;;;;;26.47;10.37;;;;;;;;;;4921004;29;20575;-70
2021/12/06 11:48:17;;;;;;;25.17;11.97;;;;;;;;;;4928856;29;20031;-73
2021/12/06 11:50:51;;;;;;;30.27;13.63;;;;;;;;;;4923873;29;20039;-74
2021/12/06 11:53:20;;;;;;;34.37;13.17;;;;;;;;;;4923712;29;20031;-74
2021/12/06 11:56:04;;;;;;;29.30;12.50;;;;;;;;;;4920395;29;20047;-72
2021/12/06 11:58:42;;;;;;;39.17;14.37;;;;;;;;;;4925157;29;20049;-73
2021/12/06 12:01:22;;;;;;;30.23;12.27;;;;;;;;;;4921611;29;20114;-72
2021/12/06 12:03:54;;;;;;;26.37;12.37;;;;;;;;;;4919111;29;20027;-75
2021/12/06 12:06:26;;;;;;;24.50;11.07;;;;;;;;;;4923423;29;20129;-72
2021/12/06 12:09:09;;;;;;;31.38;12.38;;;;;;;;;;4922971;29;20169;-73
2021/12/06 12:12:04;;;;;;;23.17;11.13;;;;;;;;;;4920032;29;20125;-73
2021/12/06 12:14:55;;;;;;;35.00;12.10;;;;;;;;;;4938875;28;20059;-73
2021/12/06 12:17:32;;;;;;;29.63;12.90;;;;;;;;;;4918053;29;20127;-72
2021/12/06 12:20:05;;;;;;;25.37;11.23;;;;;;;;;;4924352;29;20035;-71
2021/12/06 12:22:31;;;;;;;25.97;11.57;;;;;;;;;;4921761;29;20484;-72
2021/12/06 12:25:05;;;;;;;27.47;10.83;;;;;;;;;;4919324;29;20436;-72
2021/12/06 12:27:39;;;;;;;26.63;12.20;;;;;;;;;;4922826;29;20489;-74
2021/12/06 12:30:06;;;;;;;26.43;11.40;;;;;;;;;;4920869;29;20531;-72
2021/12/06 12:32:32;;;;;;;28.50;12.60;;;;;;;;;;4921121;29;20024;-71
2021/12/06 12:35:07;;;;;;;28.83;12.43;;;;;;;;;;4920896;29;20152;-73
2021/12/06 12:37:36;;;;;;;32.03;11.70;;;;;;;;;;4923630;29;20023;-73
2021/12/06 12:40:08;;;;;;;30.33;12.23;;;;;;;;;;4936272;28;20060;-74
2021/12/06 12:42:55;;;;;;;25.35;11.18;;;;;;;;;;4934131;28;20509;-73
2021/12/06 12:45:22;;;;;;;30.60;11.27;;;;;;;;;;4917951;29;20185;-72
2021/12/06 12:47:54;;;;;;;32.33;12.80;;;;;;;;;;4920731;29;20039;-71
2021/12/06 12:50:20;;;;;;;30.20;11.80;;;;;;;;;;4934772;28;20388;-73
2021/12/06 12:52:51;;;;;;;29.40;11.93;;;;;;;;;;4923095;29;20089;-73
2021/12/06 12:55:21;;;;;;;34.53;13.40;;;;;;;;;;4920396;29;20083;-71
2021/12/06 12:57:47;;;;;;;33.57;12.57;;;;;;;;;;4921632;29;20035;-73
2021/12/06 13:00:24;;;;;;;29.90;13.13;;;;;;;;;;4923308;29;20020;-72
2021/12/06 13:02:51;;;;;;;31.33;11.97;;;;;;;;;;4921793;29;20074;-73
2021/12/06 13:05:24;;;;;;;43.70;15.13;;;;;;;;;;4921591;29;21068;-73
2021/12/06 13:08:00;;;;;;;26.63;12.20;;;;;;;;;;4922511;29;20039;-72
2021/12/06 13:10:29;;;;;;;32.33;13.30;;;;;;;;;;4920672;29;20043;-73
2021/12/06 13:13:40;;;;;;;24.37;11.93;;;;;;;;;;4921000;29;20059;-72
2021/12/06 13:19:10;;;;;;;29.53;11.90;;;;;;;;;;4956840;28;20030;-71
2021/12/06 13:22:13;;;;;;;41.47;14.77;;;;;;;;;;4957963;28;20035;-73
2021/12/06 13:24:45;;;;;;;33.13;12.17;;;;;;;;;;4938519;28;20030;-72
2021/12/06 13:27:26;;;;;;;29.65;11.02;;;;;;;;;;4934173;28;20043;-74
2021/12/06 13:30:05;;;;;;;35.67;13.70;;;;;;;;;;4921407;29;20377;-71
2021/12/06 13:32:46;;;;;;;43.03;12.73;;;;;;;;;;4921606;29;20035;-73
2021/12/06 13:35:43;;;;;;;34.23;12.77;;;;;;;;;;4916862;29;20527;-71
2021/12/06 13:38:13;;;;;;;28.73;12.40;;;;;;;;;;4918646;29;20062;-76
2021/12/06 13:41:03;;;;;;;36.13;13.40;;;;;;;;;;4933849;28;20027;-72
2021/12/06 13:43:36;;;;;;;38.43;14.40;;;;;;;;;;4917966;29;20686;-74
2021/12/06 13:46:04;;;;;;;34.23;12.70;;;;;;;;;;4920448;29;20028;-76
2021/12/06 13:48:38;;;;;;;33.77;13.53;;;;;;;;;;4920015;29;20178;-75
2021/12/06 13:51:55;;;;;;;35.73;14.83;;;;;;;;;;4934753;28;20136;-73
2021/12/06 13:54:31;;;;;;;34.03;12.50;;;;;;;;;;4929697;28;20031;-73
2021/12/06 13:57:03;;;;;;;38.33;15.93;;;;;;;;;;4934559;28;20575;-72
2021/12/06 13:59:40;;;;;;;;;;;;;;;;;;4915523;29;20327;-73
2021/12/06 14:02:11;;;;;;;33.30;13.30;;;;;;;;;;4921037;29;19937;-74
2021/12/06 14:04:41;;;;;;;37.53;14.18;;;;;;;;;;4918636;29;20995;-75
2021/12/06 14:07:08;;;;;;;31.20;14.73;;;;;;;;;;4920149;29;20343;-74
2021/12/06 14:09:37;;;;;;;39.17;14.90;;;;;;;;;;4920287;29;20150;-73
2021/12/06 14:12:11;;;;;;;35.57;14.00;;;;;;;;;;4916744;29;20032;-73
2021/12/06 14:14:38;;;;;;;35.70;13.97;;;;;;;;;;4917491;29;20078;-74
2021/12/06 14:17:14;;;;;;;38.60;14.90;;;;;;;;;;4918051;29;20118;-71
2021/12/06 14:19:40;;;;;;;42.23;15.53;;;;;;;;;;4913607;29;20059;-73
2021/12/06 14:22:08;;;;;;;34.87;13.60;;;;;;;;;;4920221;29;20036;-71
2021/12/06 14:24:36;;;;;;;41.73;17.07;;;;;;;;;;4934907;28;20090;-73
2021/12/06 14:27:03;;;;;;;41.50;15.17;;;;;;;;;;4923215;29;20043;-73
2021/12/06 14:29:32;;;;;;;36.43;14.77;;;;;;;;;;4923005;29;20038;-70
2021/12/06 14:32:00;;;;;;;39.80;14.37;;;;;;;;;;4921490;29;20039;-73
2021/12/06 14:34:30;;;;;;;37.17;14.53;;;;;;;;;;4921774;29;20042;-72
2021/12/06 14:36:56;;;;;;;37.60;13.90;;;;;;;;;;4924474;29;20154;-73
2021/12/06 14:39:24;;;;;;;42.07;15.63;;;;;;;;;;4924606;29;20083;-72
2021/12/06 14:41:59;;;;;;;37.97;15.37;;;;;;;;;;4922193;29;20470;-71
2021/12/06 14:44:43;;;;;;;44.63;15.03;;;;;;;;;;4920281;29;20094;-71
2021/12/06 14:47:35;;;;;;;38.33;15.60;;;;;;;;;;4919687;29;20078;-71
2021/12/06 14:50:22;;;;;;;43.80;17.23;;;;;;;;;;4927528;29;20059;-73